sensor_id;sensor_type;location;lat;lon;timestamp;pressure;altitude;pressure_sealevel;temperature;humidity
77723;BME280;67811;42.656;23.394;2023-08-17T00:01:21;95168.31;;;20.91;70.12
77723;BME280;67811;42.656;23.394;2023-08-17T00:03:46;95166.25;;;20.98;70.00
77723;BME280;67811;42.656;23.394;2023-08-17T00:06:11;95172.41;;;20.94;69.97
77723;BME280;67811;42.656;23.394;2023-08-17T00:08:36;95163.56;;;20.98;69.89
77723;BME280;67811;42.656;23.394;2023-08-17T00:11:02;95170.28;;;20.96;69.71
77723;BME280;67811;42.656;23.394;2023-08-17T00:13:27;95167.34;;;20.81;70.07
77723;BME280;67811;42.656;23.394;2023-08-17T00:15:52;95166.00;;;20.78;70.03
77723;BME280;67811;42.656;23.394;2023-08-17T00:18:17;95159.63;;;20.67;70.20
77723;BME280;67811;42.656;23.394;2023-08-17T00:20:43;95158.56;;;20.68;70.23
77723;BME280;67811;42.656;23.394;2023-08-17T00:23:08;95166.81;;;20.62;70.18
77723;BME280;67811;42.656;23.394;2023-08-17T00:25:33;95159.81;;;20.61;69.90
77723;BME280;67811;42.656;23.394;2023-08-17T00:27:58;95161.66;;;20.60;69.57
77723;BME280;67811;42.656;23.394;2023-08-17T00:30:24;95163.06;;;20.63;69.34
77723;BME280;67811;42.656;23.394;2023-08-17T00:32:49;95172.41;;;20.60;69.17
77723;BME280;67811;42.656;23.394;2023-08-17T00:35:14;95170.06;;;20.64;68.57
77723;BME280;67811;42.656;23.394;2023-08-17T00:37:40;95169.16;;;20.58;68.07
77723;BME280;67811;42.656;23.394;2023-08-17T00:40:05;95164.03;;;20.57;67.32
77723;BME280;67811;42.656;23.394;2023-08-17T00:42:31;95163.50;;;20.43;68.36
77723;BME280;67811;42.656;23.394;2023-08-17T00:44:56;95167.50;;;20.23;68.13
77723;BME280;67811;42.656;23.394;2023-08-17T00:47:22;95162.25;;;20.00;68.72
77723;BME280;67811;42.656;23.394;2023-08-17T00:49:47;95160.81;;;19.81;68.71
77723;BME280;67811;42.656;23.394;2023-08-17T00:52:12;95164.00;;;19.66;68.98
77723;BME280;67811;42.656;23.394;2023-08-17T00:54:38;95156.31;;;19.58;69.79
77723;BME280;67811;42.656;23.394;2023-08-17T00:57:03;95149.19;;;19.52;69.48
77723;BME280;67811;42.656;23.394;2023-08-17T00:59:29;95148.50;;;19.56;68.56
77723;BME280;67811;42.656;23.394;2023-08-17T01:01:54;95159.13;;;19.63;68.34
77723;BME280;67811;42.656;23.394;2023-08-17T01:04:20;95157.44;;;19.73;67.54
77723;BME280;67811;42.656;23.394;2023-08-17T01:06:45;95154.97;;;19.72;67.99
77723;BME280;67811;42.656;23.394;2023-08-17T01:09:11;95159.44;;;19.66;67.28
77723;BME280;67811;42.656;23.394;2023-08-17T01:14:12;95152.44;;;19.65;67.21
77723;BME280;67811;42.656;23.394;2023-08-17T01:16:58;95159.44;;;19.66;66.58
77723;BME280;67811;42.656;23.394;2023-08-17T01:19:27;95157.00;;;19.65;66.17
77723;BME280;67811;42.656;23.394;2023-08-17T01:21:57;95155.56;;;19.74;64.61
77723;BME280;67811;42.656;23.394;2023-08-17T01:24:25;95154.66;;;19.68;64.35
77723;BME280;67811;42.656;23.394;2023-08-17T01:26:50;95158.97;;;19.69;63.89
77723;BME280;67811;42.656;23.394;2023-08-17T01:29:15;95154.69;;;19.57;66.16
77723;BME280;67811;42.656;23.394;2023-08-17T01:34:40;95150.47;;;19.61;64.32
77723;BME280;67811;42.656;23.394;2023-08-17T01:37:10;95144.81;;;19.74;63.20
77723;BME280;67811;42.656;23.394;2023-08-17T01:39:39;95146.25;;;19.65;63.77
77723;BME280;67811;42.656;23.394;2023-08-17T01:42:06;95143.53;;;19.93;62.78
77723;BME280;67811;42.656;23.394;2023-08-17T01:44:32;95140.31;;;20.92;63.78
77723;BME280;67811;42.656;23.394;2023-08-17T01:46:57;95146.84;;;21.79;60.65
77723;BME280;67811;42.656;23.394;2023-08-17T01:49:22;95145.28;;;21.61;56.37
77723;BME280;67811;42.656;23.394;2023-08-17T01:51:48;95148.28;;;21.04;57.52
77723;BME280;67811;42.656;23.394;2023-08-17T01:54:13;95139.03;;;20.95;57.95
77723;BME280;67811;42.656;23.394;2023-08-17T01:56:38;95152.53;;;20.78;58.95
77723;BME280;67811;42.656;23.394;2023-08-17T01:59:04;95142.94;;;20.37;59.10
77723;BME280;67811;42.656;23.394;2023-08-17T02:01:29;95151.56;;;20.05;60.27
77723;BME280;67811;42.656;23.394;2023-08-17T02:03:54;95149.78;;;19.82;60.80
77723;BME280;67811;42.656;23.394;2023-08-17T02:06:19;95157.78;;;20.22;62.33
77723;BME280;67811;42.656;23.394;2023-08-17T02:08:45;95144.31;;;21.07;57.98
77723;BME280;67811;42.656;23.394;2023-08-17T02:11:10;95140.97;;;21.60;57.54
77723;BME280;67811;42.656;23.394;2023-08-17T02:13:36;95151.00;;;21.43;55.90
77723;BME280;67811;42.656;23.394;2023-08-17T02:16:01;95148.50;;;20.81;57.51
77723;BME280;67811;42.656;23.394;2023-08-17T02:18:26;95141.84;;;20.49;58.41
77723;BME280;67811;42.656;23.394;2023-08-17T02:20:51;95142.94;;;20.37;58.27
77723;BME280;67811;42.656;23.394;2023-08-17T02:23:17;95135.78;;;20.42;60.06
77723;BME280;67811;42.656;23.394;2023-08-17T02:25:42;95141.22;;;20.98;57.61
77723;BME280;67811;42.656;23.394;2023-08-17T02:28:07;95134.13;;;20.92;57.95
77723;BME280;67811;42.656;23.394;2023-08-17T02:30:33;95142.41;;;20.51;58.79
77723;BME280;67811;42.656;23.394;2023-08-17T02:32:59;95130.03;;;21.06;56.67
77723;BME280;67811;42.656;23.394;2023-08-17T02:35:24;95143.84;;;20.42;57.48
77723;BME280;67811;42.656;23.394;2023-08-17T02:37:50;95143.34;;;19.83;59.43
77723;BME280;67811;42.656;23.394;2023-08-17T02:40:15;95137.53;;;19.46;60.96
77723;BME280;67811;42.656;23.394;2023-08-17T02:42:40;95134.09;;;19.10;62.28
77723;BME280;67811;42.656;23.394;2023-08-17T02:45:07;95131.22;;;18.88;63.25
77723;BME280;67811;42.656;23.394;2023-08-17T02:47:32;95134.41;;;18.74;63.77
77723;BME280;67811;42.656;23.394;2023-08-17T02:49:57;95134.34;;;18.62;64.30
77723;BME280;67811;42.656;23.394;2023-08-17T02:52:23;95131.09;;;18.36;65.15
77723;BME280;67811;42.656;23.394;2023-08-17T02:54:48;95138.78;;;18.33;65.70
77723;BME280;67811;42.656;23.394;2023-08-17T02:57:13;95133.97;;;18.23;65.98
77723;BME280;67811;42.656;23.394;2023-08-17T02:59:39;95135.94;;;18.16;66.20
77723;BME280;67811;42.656;23.394;2023-08-17T03:02:04;95131.94;;;18.07;66.49
77723;BME280;67811;42.656;23.394;2023-08-17T03:04:29;95127.63;;;18.06;66.86
77723;BME280;67811;42.656;23.394;2023-08-17T03:06:54;95132.06;;;18.12;66.57
77723;BME280;67811;42.656;23.394;2023-08-17T03:09:20;95130.28;;;18.36;67.39
77723;BME280;67811;42.656;23.394;2023-08-17T03:11:45;95126.78;;;18.82;64.83
77723;BME280;67811;42.656;23.394;2023-08-17T03:14:10;95135.88;;;19.05;63.71
77723;BME280;67811;42.656;23.394;2023-08-17T03:16:36;95136.09;;;19.67;63.14
77723;BME280;67811;42.656;23.394;2023-08-17T03:19:01;95129.34;;;19.81;59.81
77723;BME280;67811;42.656;23.394;2023-08-17T03:21:26;95131.34;;;19.45;61.65
77723;BME280;67811;42.656;23.394;2023-08-17T03:23:52;95132.59;;;19.03;61.78
77723;BME280;67811;42.656;23.394;2023-08-17T03:26:17;95131.72;;;18.74;62.91
77723;BME280;67811;42.656;23.394;2023-08-17T03:28:42;95132.16;;;18.47;63.92
77723;BME280;67811;42.656;23.394;2023-08-17T03:31:07;95137.94;;;18.21;64.86
77723;BME280;67811;42.656;23.394;2023-08-17T03:33:33;95135.81;;;18.11;65.08
77723;BME280;67811;42.656;23.394;2023-08-17T03:35:58;95135.78;;;17.99;65.70
77723;BME280;67811;42.656;23.394;2023-08-17T03:38:23;95134.41;;;17.97;65.72
77723;BME280;67811;42.656;23.394;2023-08-17T03:40:49;95137.28;;;17.95;65.84
77723;BME280;67811;42.656;23.394;2023-08-17T03:43:14;95145.34;;;17.95;65.91
77723;BME280;67811;42.656;23.394;2023-08-17T03:45:41;95143.59;;;18.01;65.91
77723;BME280;67811;42.656;23.394;2023-08-17T03:48:06;95140.00;;;18.07;65.86
77723;BME280;67811;42.656;23.394;2023-08-17T03:50:32;95137.22;;;18.13;65.48
77723;BME280;67811;42.656;23.394;2023-08-17T03:52:57;95137.31;;;18.07;65.86
77723;BME280;67811;42.656;23.394;2023-08-17T03:55:22;95145.84;;;18.15;65.11
77723;BME280;67811;42.656;23.394;2023-08-17T03:57:47;95148.56;;;18.39;64.84
77723;BME280;67811;42.656;23.394;2023-08-17T04:00:13;95143.34;;;18.67;63.92
77723;BME280;67811;42.656;23.394;2023-08-17T04:02:38;95149.88;;;18.60;63.87
77723;BME280;67811;42.656;23.394;2023-08-17T04:05:04;95150.44;;;18.38;64.16
77723;BME280;67811;42.656;23.394;2023-08-17T04:07:29;95145.88;;;18.27;64.76
77723;BME280;67811;42.656;23.394;2023-08-17T04:09:55;95144.75;;;18.82;64.07
77723;BME280;67811;42.656;23.394;2023-08-17T04:12:20;95144.19;;;19.43;62.38
77723;BME280;67811;42.656;23.394;2023-08-17T04:14:45;95154.16;;;19.71;60.36
77723;BME280;67811;42.656;23.394;2023-08-17T04:17:11;95151.72;;;20.15;58.68
77723;BME280;67811;42.656;23.394;2023-08-17T04:19:36;95142.78;;;19.81;59.59
77723;BME280;67811;42.656;23.394;2023-08-17T04:22:02;95147.06;;;19.94;60.25
77723;BME280;67811;42.656;23.394;2023-08-17T04:24:27;95151.06;;;20.53;58.06
77723;BME280;67811;42.656;23.394;2023-08-17T04:26:52;95146.13;;;20.17;58.18
77723;BME280;67811;42.656;23.394;2023-08-17T04:29:18;95146.56;;;20.76;56.84
77723;BME280;67811;42.656;23.394;2023-08-17T04:31:43;95151.16;;;20.13;57.05
77723;BME280;67811;42.656;23.394;2023-08-17T04:34:09;95148.06;;;20.21;57.27
77723;BME280;67811;42.656;23.394;2023-08-17T04:36:34;95139.81;;;19.94;57.43
77723;BME280;67811;42.656;23.394;2023-08-17T04:39:00;95146.00;;;19.66;58.10
77723;BME280;67811;42.656;23.394;2023-08-17T04:41:25;95146.31;;;19.41;59.19
77723;BME280;67811;42.656;23.394;2023-08-17T04:43:50;95145.31;;;19.19;59.92
77723;BME280;67811;42.656;23.394;2023-08-17T04:46:16;95143.47;;;19.08;60.28
77723;BME280;67811;42.656;23.394;2023-08-17T04:48:41;95149.06;;;19.18;60.62
77723;BME280;67811;42.656;23.394;2023-08-17T04:51:06;95143.97;;;19.45;61.22
77723;BME280;67811;42.656;23.394;2023-08-17T04:53:31;95141.91;;;19.92;57.85
77723;BME280;67811;42.656;23.394;2023-08-17T04:55:58;95142.31;;;19.84;57.85
77723;BME280;67811;42.656;23.394;2023-08-17T04:58:24;95141.59;;;19.89;58.54
77723;BME280;67811;42.656;23.394;2023-08-17T05:00:49;95140.31;;;20.08;57.14
77723;BME280;67811;42.656;23.394;2023-08-17T05:03:14;95142.28;;;20.13;57.18
77723;BME280;67811;42.656;23.394;2023-08-17T05:05:39;95133.41;;;20.29;56.37
77723;BME280;67811;42.656;23.394;2023-08-17T05:08:05;95138.66;;;20.69;56.31
77723;BME280;67811;42.656;23.394;2023-08-17T05:10:30;95143.38;;;21.18;55.66
77723;BME280;67811;42.656;23.394;2023-08-17T05:12:55;95137.41;;;22.35;53.35
77723;BME280;67811;42.656;23.394;2023-08-17T05:15:21;95139.66;;;23.18;51.24
77723;BME280;67811;42.656;23.394;2023-08-17T05:17:46;95140.53;;;23.97;49.00
77723;BME280;67811;42.656;23.394;2023-08-17T05:20:11;95141.94;;;24.19;46.91
77723;BME280;67811;42.656;23.394;2023-08-17T05:22:37;95139.28;;;24.45;46.42
77723;BME280;67811;42.656;23.394;2023-08-17T05:25:02;95138.44;;;24.95;44.93
77723;BME280;67811;42.656;23.394;2023-08-17T05:27:28;95128.06;;;25.38;44.66
77723;BME280;67811;42.656;23.394;2023-08-17T05:29:54;95136.34;;;25.78;43.68
77723;BME280;67811;42.656;23.394;2023-08-17T05:32:19;95139.16;;;26.07;42.55
77723;BME280;67811;42.656;23.394;2023-08-17T05:34:44;95127.50;;;26.01;43.93
77723;BME280;67811;42.656;23.394;2023-08-17T05:37:09;95132.34;;;26.09;44.17
77723;BME280;67811;42.656;23.394;2023-08-17T05:39:35;95134.13;;;26.29;43.88
77723;BME280;67811;42.656;23.394;2023-08-17T05:42:00;95139.78;;;26.43;44.23
77723;BME280;67811;42.656;23.394;2023-08-17T05:44:25;95143.97;;;26.59;43.60
77723;BME280;67811;42.656;23.394;2023-08-17T05:46:50;95144.47;;;26.27;44.63
77723;BME280;67811;42.656;23.394;2023-08-17T05:49:16;95142.44;;;26.48;43.68
77723;BME280;67811;42.656;23.394;2023-08-17T05:51:41;95138.31;;;26.11;44.07
77723;BME280;67811;42.656;23.394;2023-08-17T05:54:06;95139.09;;;26.17;44.62
77723;BME280;67811;42.656;23.394;2023-08-17T05:56:31;95140.28;;;26.40;43.63
77723;BME280;67811;42.656;23.394;2023-08-17T05:58:57;95138.13;;;26.42;43.59
77723;BME280;67811;42.656;23.394;2023-08-17T06:01:22;95145.44;;;26.46;43.21
77723;BME280;67811;42.656;23.394;2023-08-17T06:03:47;95145.00;;;26.68;42.95
77723;BME280;67811;42.656;23.394;2023-08-17T06:06:12;95143.28;;;26.77;41.71
77723;BME280;67811;42.656;23.394;2023-08-17T06:08:38;95140.94;;;26.95;41.59
77723;BME280;67811;42.656;23.394;2023-08-17T06:11:03;95144.56;;;26.85;42.46
77723;BME280;67811;42.656;23.394;2023-08-17T06:13:28;95149.13;;;26.95;41.17
77723;BME280;67811;42.656;23.394;2023-08-17T06:15:56;95142.06;;;26.94;41.55
77723;BME280;67811;42.656;23.394;2023-08-17T06:18:21;95142.34;;;26.92;40.53
77723;BME280;67811;42.656;23.394;2023-08-17T06:20:46;95139.63;;;26.92;40.72
77723;BME280;67811;42.656;23.394;2023-08-17T06:23:12;95142.72;;;27.15;40.41
77723;BME280;67811;42.656;23.394;2023-08-17T06:25:37;95137.97;;;26.91;40.46
77723;BME280;67811;42.656;23.394;2023-08-17T06:28:02;95145.94;;;26.04;43.50
77723;BME280;67811;42.656;23.394;2023-08-17T06:30:28;95135.63;;;26.06;43.71
77723;BME280;67811;42.656;23.394;2023-08-17T06:32:53;95139.72;;;26.82;43.23
77723;BME280;67811;42.656;23.394;2023-08-17T06:35:18;95145.50;;;27.34;42.91
77723;BME280;67811;42.656;23.394;2023-08-17T06:37:44;95146.22;;;27.15;43.92
77723;BME280;67811;42.656;23.394;2023-08-17T06:40:09;95140.31;;;27.80;43.93
77723;BME280;67811;42.656;23.394;2023-08-17T06:42:35;95154.22;;;28.02;42.47
77723;BME280;67811;42.656;23.394;2023-08-17T06:45:00;95148.59;;;27.94;42.46
77723;BME280;67811;42.656;23.394;2023-08-17T06:47:26;95152.19;;;27.70;43.62
77723;BME280;67811;42.656;23.394;2023-08-17T06:49:51;95146.75;;;27.17;45.19
77723;BME280;67811;42.656;23.394;2023-08-17T06:52:16;95145.09;;;27.69;43.86
77723;BME280;67811;42.656;23.394;2023-08-17T06:54:42;95151.09;;;27.90;43.57
77723;BME280;67811;42.656;23.394;2023-08-17T06:57:07;95150.94;;;28.43;42.59
77723;BME280;67811;42.656;23.394;2023-08-17T06:59:32;95152.88;;;28.00;43.25
77723;BME280;67811;42.656;23.394;2023-08-17T07:01:57;95152.59;;;28.20;43.17
77723;BME280;67811;42.656;23.394;2023-08-17T07:04:23;95145.34;;;27.68;43.78
77723;BME280;67811;42.656;23.394;2023-08-17T07:06:48;95150.38;;;27.37;44.03
77723;BME280;67811;42.656;23.394;2023-08-17T07:09:13;95145.09;;;27.21;44.89
77723;BME280;67811;42.656;23.394;2023-08-17T07:11:39;95147.59;;;27.42;45.01
77723;BME280;67811;42.656;23.394;2023-08-17T07:14:04;95150.53;;;27.93;42.57
77723;BME280;67811;42.656;23.394;2023-08-17T07:16:29;95144.81;;;28.14;42.21
77723;BME280;67811;42.656;23.394;2023-08-17T07:18:54;95143.31;;;28.21;40.98
77723;BME280;67811;42.656;23.394;2023-08-17T07:21:20;95140.97;;;28.15;41.62
77723;BME280;67811;42.656;23.394;2023-08-17T07:23:45;95140.44;;;28.69;39.72
77723;BME280;67811;42.656;23.394;2023-08-17T07:26:10;95133.00;;;28.75;38.94
77723;BME280;67811;42.656;23.394;2023-08-17T07:28:36;95138.19;;;29.36;37.33
77723;BME280;67811;42.656;23.394;2023-08-17T07:31:01;95134.47;;;29.60;37.11
77723;BME280;67811;42.656;23.394;2023-08-17T07:33:26;95129.53;;;29.89;36.01
77723;BME280;67811;42.656;23.394;2023-08-17T07:35:52;95137.16;;;30.15;35.00
77723;BME280;67811;42.656;23.394;2023-08-17T07:38:17;95129.56;;;30.48;33.18
77723;BME280;67811;42.656;23.394;2023-08-17T07:40:42;95132.66;;;30.91;30.85
77723;BME280;67811;42.656;23.394;2023-08-17T07:43:07;95134.06;;;31.11;31.63
77723;BME280;67811;42.656;23.394;2023-08-17T07:45:33;95128.88;;;31.01;32.26
77723;BME280;67811;42.656;23.394;2023-08-17T07:47:58;95127.56;;;30.76;31.63
77723;BME280;67811;42.656;23.394;2023-08-17T07:50:23;95135.19;;;31.33;29.52
77723;BME280;67811;42.656;23.394;2023-08-17T07:52:49;95139.59;;;30.53;31.40
77723;BME280;67811;42.656;23.394;2023-08-17T07:55:14;95131.25;;;29.85;32.41
77723;BME280;67811;42.656;23.394;2023-08-17T07:57:39;95131.75;;;30.37;31.79
77723;BME280;67811;42.656;23.394;2023-08-17T08:00:05;95128.53;;;30.35;31.93
77723;BME280;67811;42.656;23.394;2023-08-17T08:02:30;95125.63;;;30.18;32.87
77723;BME280;67811;42.656;23.394;2023-08-17T08:04:56;95119.31;;;30.54;32.33
77723;BME280;67811;42.656;23.394;2023-08-17T08:07:21;95130.97;;;30.82;31.16
77723;BME280;67811;42.656;23.394;2023-08-17T08:09:46;95118.94;;;31.14;31.23
77723;BME280;67811;42.656;23.394;2023-08-17T08:12:11;95112.66;;;31.13;31.62
77723;BME280;67811;42.656;23.394;2023-08-17T08:14:37;95104.13;;;30.84;31.63
77723;BME280;67811;42.656;23.394;2023-08-17T08:17:02;95112.84;;;30.27;33.27
77723;BME280;67811;42.656;23.394;2023-08-17T08:19:27;95113.44;;;30.60;32.54
77723;BME280;67811;42.656;23.394;2023-08-17T08:21:53;95115.41;;;30.82;33.10
77723;BME280;67811;42.656;23.394;2023-08-17T08:24:18;95113.13;;;31.07;32.47
77723;BME280;67811;42.656;23.394;2023-08-17T08:26:43;95104.53;;;30.55;32.84
77723;BME280;67811;42.656;23.394;2023-08-17T08:29:08;95103.47;;;30.64;33.36
77723;BME280;67811;42.656;23.394;2023-08-17T08:31:34;95101.22;;;31.11;32.22
77723;BME280;67811;42.656;23.394;2023-08-17T08:33:59;95098.59;;;30.75;32.26
77723;BME280;67811;42.656;23.394;2023-08-17T08:36:25;95106.84;;;30.61;32.63
77723;BME280;67811;42.656;23.394;2023-08-17T08:38:50;95107.19;;;30.82;32.45
77723;BME280;67811;42.656;23.394;2023-08-17T08:41:15;95101.22;;;31.11;32.06
77723;BME280;67811;42.656;23.394;2023-08-17T08:43:40;95094.31;;;31.45;31.19
77723;BME280;67811;42.656;23.394;2023-08-17T08:46:06;95095.91;;;31.86;30.94
77723;BME280;67811;42.656;23.394;2023-08-17T08:48:31;95091.41;;;31.98;30.41
77723;BME280;67811;42.656;23.394;2023-08-17T08:50:59;95099.03;;;31.62;30.27
77723;BME280;67811;42.656;23.394;2023-08-17T08:53:35;95088.97;;;31.09;31.28
77723;BME280;67811;42.656;23.394;2023-08-17T08:56:03;95087.28;;;31.21;31.69
77723;BME280;67811;42.656;23.394;2023-08-17T08:58:29;95090.91;;;30.77;32.40
77723;BME280;67811;42.656;23.394;2023-08-17T09:00:57;95085.00;;;29.75;34.40
77723;BME280;67811;42.656;23.394;2023-08-17T09:03:23;95086.13;;;29.74;34.06
77723;BME280;67811;42.656;23.394;2023-08-17T09:05:50;95089.81;;;30.64;32.89
77723;BME280;67811;42.656;23.394;2023-08-17T09:08:20;95084.06;;;30.97;31.89
77723;BME280;67811;42.656;23.394;2023-08-17T09:10:46;95075.66;;;31.56;31.88
77723;BME280;67811;42.656;23.394;2023-08-17T09:13:11;95076.28;;;32.10;31.25
77723;BME280;67811;42.656;23.394;2023-08-17T09:15:36;95067.72;;;32.63;30.22
77723;BME280;67811;42.656;23.394;2023-08-17T09:18:05;95080.47;;;32.68;29.55
77723;BME280;67811;42.656;23.394;2023-08-17T09:20:44;95058.53;;;32.07;30.47
77723;BME280;67811;42.656;23.394;2023-08-17T09:23:11;95062.91;;;32.43;30.17
77723;BME280;67811;42.656;23.394;2023-08-17T09:25:38;95057.72;;;31.41;31.63
77723;BME280;67811;42.656;23.394;2023-08-17T09:28:08;95056.91;;;32.75;30.33
77723;BME280;67811;42.656;23.394;2023-08-17T09:30:33;95041.13;;;32.46;27.81
77723;BME280;67811;42.656;23.394;2023-08-17T09:33:02;95051.09;;;32.25;27.70
77723;BME280;67811;42.656;23.394;2023-08-17T09:35:31;95045.31;;;32.18;28.35
77723;BME280;67811;42.656;23.394;2023-08-17T09:37:57;95044.81;;;31.98;28.23
77723;BME280;67811;42.656;23.394;2023-08-17T09:40:25;95039.88;;;31.12;29.17
77723;BME280;67811;42.656;23.394;2023-08-17T09:42:51;95033.63;;;31.69;28.73
77723;BME280;67811;42.656;23.394;2023-08-17T09:45:18;95034.66;;;31.99;28.26
77723;BME280;67811;42.656;23.394;2023-08-17T09:47:45;95032.72;;;32.34;27.58
77723;BME280;67811;42.656;23.394;2023-08-17T09:50:11;95030.38;;;31.58;28.14
77723;BME280;67811;42.656;23.394;2023-08-17T09:52:38;95020.56;;;31.48;28.42
77723;BME280;67811;42.656;23.394;2023-08-17T09:55:05;95032.28;;;31.40;28.76
77723;BME280;67811;42.656;23.394;2023-08-17T09:57:31;95023.38;;;32.00;28.62
77723;BME280;67811;42.656;23.394;2023-08-17T09:59:57;95028.38;;;32.33;27.62
77723;BME280;67811;42.656;23.394;2023-08-17T10:02:23;95025.00;;;32.45;27.59
77723;BME280;67811;42.656;23.394;2023-08-17T10:04:53;95016.47;;;33.02;26.57
77723;BME280;67811;42.656;23.394;2023-08-17T10:07:19;95018.63;;;32.79;26.19
77723;BME280;67811;42.656;23.394;2023-08-17T10:09:49;95016.09;;;32.57;26.57
77723;BME280;67811;42.656;23.394;2023-08-17T10:12:16;95012.25;;;32.40;26.64
77723;BME280;67811;42.656;23.394;2023-08-17T10:14:47;95017.97;;;32.73;26.69
77723;BME280;67811;42.656;23.394;2023-08-17T10:17:19;95003.13;;;32.74;26.69
77723;BME280;67811;42.656;23.394;2023-08-17T10:19:47;95022.88;;;32.24;27.10
77723;BME280;67811;42.656;23.394;2023-08-17T10:22:18;95019.00;;;32.51;26.53
77723;BME280;67811;42.656;23.394;2023-08-17T10:24:45;95009.16;;;32.50;26.67
77723;BME280;67811;42.656;23.394;2023-08-17T10:27:11;95009.38;;;32.37;28.04
77723;BME280;67811;42.656;23.394;2023-08-17T10:29:38;95014.16;;;32.57;27.19
77723;BME280;67811;42.656;23.394;2023-08-17T10:32:05;95003.84;;;32.54;26.47
77723;BME280;67811;42.656;23.394;2023-08-17T10:34:31;95009.25;;;33.27;26.90
77723;BME280;67811;42.656;23.394;2023-08-17T10:36:57;95009.78;;;33.79;25.82
77723;BME280;67811;42.656;23.394;2023-08-17T10:39:28;95006.06;;;33.54;25.09
77723;BME280;67811;42.656;23.394;2023-08-17T10:41:54;95006.69;;;33.60;25.04
77723;BME280;67811;42.656;23.394;2023-08-17T10:44:45;95000.66;;;33.96;24.95
77723;BME280;67811;42.656;23.394;2023-08-17T10:47:29;94984.88;;;33.85;25.51
77723;BME280;67811;42.656;23.394;2023-08-17T10:49:58;95001.91;;;32.46;26.19
77723;BME280;67811;42.656;23.394;2023-08-17T10:52:34;94998.19;;;32.59;26.73
77723;BME280;67811;42.656;23.394;2023-08-17T10:55:01;94996.84;;;32.91;26.68
77723;BME280;67811;42.656;23.394;2023-08-17T11:00:06;94991.94;;;32.15;25.75
77723;BME280;67811;42.656;23.394;2023-08-17T11:02:32;94998.66;;;31.74;28.18
77723;BME280;67811;42.656;23.394;2023-08-17T11:04:57;94991.78;;;32.20;29.16
77723;BME280;67811;42.656;23.394;2023-08-17T11:07:23;94983.44;;;32.72;29.13
77723;BME280;67811;42.656;23.394;2023-08-17T11:09:48;94981.53;;;33.49;27.24
77723;BME280;67811;42.656;23.394;2023-08-17T11:12:26;94972.25;;;32.95;25.71
77723;BME280;67811;42.656;23.394;2023-08-17T11:14:51;94983.69;;;32.33;26.52
77723;BME280;67811;42.656;23.394;2023-08-17T11:17:20;94972.03;;;33.09;26.34
77723;BME280;67811;42.656;23.394;2023-08-17T11:19:45;94972.69;;;33.44;27.18
77723;BME280;67811;42.656;23.394;2023-08-17T11:22:11;94968.94;;;33.48;27.08
77723;BME280;67811;42.656;23.394;2023-08-17T11:24:37;94969.84;;;33.23;27.11
77723;BME280;67811;42.656;23.394;2023-08-17T11:27:04;94964.94;;;33.37;26.48
77723;BME280;67811;42.656;23.394;2023-08-17T11:29:31;94961.16;;;32.74;26.89
77723;BME280;67811;42.656;23.394;2023-08-17T11:31:57;94956.13;;;32.93;26.98
77723;BME280;67811;42.656;23.394;2023-08-17T11:34:23;94956.03;;;33.11;27.42
77723;BME280;67811;42.656;23.394;2023-08-17T11:36:48;94959.72;;;32.76;28.03
77723;BME280;67811;42.656;23.394;2023-08-17T11:39:13;94955.72;;;32.65;28.86
77723;BME280;67811;42.656;23.394;2023-08-17T11:41:38;94960.84;;;32.75;29.08
77723;BME280;67811;42.656;23.394;2023-08-17T11:44:04;94969.53;;;31.87;30.27
77723;BME280;67811;42.656;23.394;2023-08-17T11:46:29;94959.59;;;32.64;29.26
77723;BME280;67811;42.656;23.394;2023-08-17T11:48:55;94952.56;;;32.29;29.48
77723;BME280;67811;42.656;23.394;2023-08-17T11:51:30;94966.41;;;32.49;29.19
77723;BME280;67811;42.656;23.394;2023-08-17T11:53:59;94957.44;;;33.17;28.35
77723;BME280;67811;42.656;23.394;2023-08-17T11:56:24;94954.19;;;32.94;29.24
77723;BME280;67811;42.656;23.394;2023-08-17T11:58:49;94947.50;;;33.42;29.12
77723;BME280;67811;42.656;23.394;2023-08-17T12:01:15;94945.22;;;33.65;28.21
77723;BME280;67811;42.656;23.394;2023-08-17T12:03:40;94943.75;;;33.67;26.78
77723;BME280;67811;42.656;23.394;2023-08-17T12:06:06;94945.94;;;32.94;28.54
77723;BME280;67811;42.656;23.394;2023-08-17T12:08:31;94958.19;;;32.58;27.96
77723;BME280;67811;42.656;23.394;2023-08-17T12:10:56;94952.06;;;32.35;28.89
77723;BME280;67811;42.656;23.394;2023-08-17T12:13:32;94944.16;;;31.47;29.70
77723;BME280;67811;42.656;23.394;2023-08-17T12:15:58;94954.16;;;31.52;30.56
77723;BME280;67811;42.656;23.394;2023-08-17T12:18:25;94940.00;;;31.67;30.02
77723;BME280;67811;42.656;23.394;2023-08-17T12:20:54;94946.94;;;31.56;30.68
77723;BME280;67811;42.656;23.394;2023-08-17T12:23:19;94940.97;;;31.97;30.80
77723;BME280;67811;42.656;23.394;2023-08-17T12:25:45;94932.75;;;32.06;30.62
77723;BME280;67811;42.656;23.394;2023-08-17T12:28:13;94938.19;;;31.54;31.13
77723;BME280;67811;42.656;23.394;2023-08-17T12:30:38;94938.53;;;31.69;31.24
77723;BME280;67811;42.656;23.394;2023-08-17T12:33:04;94934.88;;;31.83;30.77
77723;BME280;67811;42.656;23.394;2023-08-17T12:35:31;94924.69;;;32.00;30.57
77723;BME280;67811;42.656;23.394;2023-08-17T12:37:57;94924.66;;;32.26;30.30
77723;BME280;67811;42.656;23.394;2023-08-17T12:40:23;94935.19;;;31.98;30.96
77723;BME280;67811;42.656;23.394;2023-08-17T12:42:49;94930.19;;;31.66;32.07
77723;BME280;67811;42.656;23.394;2023-08-17T12:45:15;94934.06;;;31.65;32.17
77723;BME280;67811;42.656;23.394;2023-08-17T12:47:41;94940.97;;;31.71;31.66
77723;BME280;67811;42.656;23.394;2023-08-17T12:50:06;94933.72;;;31.66;31.85
77723;BME280;67811;42.656;23.394;2023-08-17T12:52:32;94944.69;;;31.66;32.33